sensor_id;sensor_type;location;lat;lon;timestamp;temperature;humidity
17252;DHT22;8742;51.716;8.790;2024-02-15T00:01:51;12.00;99.90
17252;DHT22;8742;51.716;8.790;2024-02-15T00:04:18;12.00;99.90
17252;DHT22;8742;51.716;8.790;2024-02-15T00:06:45;12.00;99.90
17252;DHT22;8742;51.716;8.790;2024-02-15T00:09:12;12.00;99.90
17252;DHT22;8742;51.716;8.790;2024-02-15T00:11:41;12.00;99.90
17252;DHT22;8742;51.716;8.790;2024-02-15T00:14:07;12.10;99.90
17252;DHT22;8742;51.716;8.790;2024-02-15T00:16:34;12.10;99.90
17252;DHT22;8742;51.716;8.790;2024-02-15T00:19:01;12.10;99.90
17252;DHT22;8742;51.716;8.790;2024-02-15T00:21:28;12.10;99.90
17252;DHT22;8742;51.716;8.790;2024-02-15T00:23:55;12.10;99.90
17252;DHT22;8742;51.716;8.790;2024-02-15T00:26:22;12.10;99.90
17252;DHT22;8742;51.716;8.790;2024-02-15T00:28:50;12.10;99.90
17252;DHT22;8742;51.716;8.790;2024-02-15T00:31:18;12.10;99.90
17252;DHT22;8742;51.716;8.790;2024-02-15T00:33:45;12.10;99.90
17252;DHT22;8742;51.716;8.790;2024-02-15T00:36:11;12.10;99.90
17252;DHT22;8742;51.716;8.790;2024-02-15T00:38:38;12.10;99.90
17252;DHT22;8742;51.716;8.790;2024-02-15T00:41:05;12.10;99.90
17252;DHT22;8742;51.716;8.790;2024-02-15T00:43:34;12.10;99.90
17252;DHT22;8742;51.716;8.790;2024-02-15T00:46:03;12.10;99.90
17252;DHT22;8742;51.716;8.790;2024-02-15T00:48:30;12.10;99.90
17252;DHT22;8742;51.716;8.790;2024-02-15T00:50:57;12.10;99.90
17252;DHT22;8742;51.716;8.790;2024-02-15T00:53:24;12.10;99.90
17252;DHT22;8742;51.716;8.790;2024-02-15T00:55:51;12.10;99.90
17252;DHT22;8742;51.716;8.790;2024-02-15T00:58:18;12.00;99.90
17252;DHT22;8742;51.716;8.790;2024-02-15T01:00:47;12.00;99.90
17252;DHT22;8742;51.716;8.790;2024-02-15T01:03:15;12.00;99.90
17252;DHT22;8742;51.716;8.790;2024-02-15T01:05:42;12.00;99.90
17252;DHT22;8742;51.716;8.790;2024-02-15T01:08:09;12.00;99.90
17252;DHT22;8742;51.716;8.790;2024-02-15T01:10:36;12.00;99.90
17252;DHT22;8742;51.716;8.790;2024-02-15T01:13:03;11.90;99.90
17252;DHT22;8742;51.716;8.790;2024-02-15T01:15:30;11.90;99.90
17252;DHT22;8742;51.716;8.790;2024-02-15T01:17:57;11.80;99.90
17252;DHT22;8742;51.716;8.790;2024-02-15T01:20:25;11.80;99.90
17252;DHT22;8742;51.716;8.790;2024-02-15T01:22:52;11.80;99.90
17252;DHT22;8742;51.716;8.790;2024-02-15T01:25:19;11.70;99.90
17252;DHT22;8742;51.716;8.790;2024-02-15T01:27:46;11.70;99.90
17252;DHT22;8742;51.716;8.790;2024-02-15T01:30:14;11.70;99.90
17252;DHT22;8742;51.716;8.790;2024-02-15T01:32:40;11.70;99.90
17252;DHT22;8742;51.716;8.790;2024-02-15T01:35:07;11.60;99.90
17252;DHT22;8742;51.716;8.790;2024-02-15T01:37:37;11.60;99.90
17252;DHT22;8742;51.716;8.790;2024-02-15T01:40:05;11.60;99.90
17252;DHT22;8742;51.716;8.790;2024-02-15T01:42:33;11.60;99.90
17252;DHT22;8742;51.716;8.790;2024-02-15T01:44:59;11.60;99.90
17252;DHT22;8742;51.716;8.790;2024-02-15T01:47:26;11.60;99.90
17252;DHT22;8742;51.716;8.790;2024-02-15T01:49:54;11.60;99.90
17252;DHT22;8742;51.716;8.790;2024-02-15T01:52:22;11.60;99.90
17252;DHT22;8742;51.716;8.790;2024-02-15T01:54:51;11.60;99.90
17252;DHT22;8742;51.716;8.790;2024-02-15T01:57:19;11.60;99.90
17252;DHT22;8742;51.716;8.790;2024-02-15T01:59:47;11.60;99.90
17252;DHT22;8742;51.716;8.790;2024-02-15T02:02:16;11.60;99.90
17252;DHT22;8742;51.716;8.790;2024-02-15T02:04:45;11.60;99.90
17252;DHT22;8742;51.716;8.790;2024-02-15T02:07:12;11.60;99.90
17252;DHT22;8742;51.716;8.790;2024-02-15T02:09:40;11.60;99.90
17252;DHT22;8742;51.716;8.790;2024-02-15T02:12:08;11.60;99.90
17252;DHT22;8742;51.716;8.790;2024-02-15T02:14:35;11.60;99.90
17252;DHT22;8742;51.716;8.790;2024-02-15T02:17:12;11.60;99.90
17252;DHT22;8742;51.716;8.790;2024-02-15T02:19:39;11.60;99.90
17252;DHT22;8742;51.716;8.790;2024-02-15T02:22:07;11.60;99.90
17252;DHT22;8742;51.716;8.790;2024-02-15T02:24:40;11.60;99.90
17252;DHT22;8742;51.716;8.790;2024-02-15T02:27:09;11.60;99.90
17252;DHT22;8742;51.716;8.790;2024-02-15T02:29:42;11.60;99.90
17252;DHT22;8742;51.716;8.790;2024-02-15T02:32:11;11.60;99.90
17252;DHT22;8742;51.716;8.790;2024-02-15T02:34:38;11.60;99.90
17252;DHT22;8742;51.716;8.790;2024-02-15T02:37:06;11.60;99.90
17252;DHT22;8742;51.716;8.790;2024-02-15T02:39:33;11.60;99.90
17252;DHT22;8742;51.716;8.790;2024-02-15T02:42:00;11.60;99.90
17252;DHT22;8742;51.716;8.790;2024-02-15T02:44:29;11.60;99.90
17252;DHT22;8742;51.716;8.790;2024-02-15T02:46:55;11.60;99.90
17252;DHT22;8742;51.716;8.790;2024-02-15T02:49:22;11.60;99.90
17252;DHT22;8742;51.716;8.790;2024-02-15T02:51:49;11.60;99.90
17252;DHT22;8742;51.716;8.790;2024-02-15T02:54:16;11.70;99.90
17252;DHT22;8742;51.716;8.790;2024-02-15T02:56:43;11.60;99.90
17252;DHT22;8742;51.716;8.790;2024-02-15T02:59:10;11.60;99.90
17252;DHT22;8742;51.716;8.790;2024-02-15T03:01:39;11.70;99.90
17252;DHT22;8742;51.716;8.790;2024-02-15T03:04:06;11.70;99.90
17252;DHT22;8742;51.716;8.790;2024-02-15T03:06:33;11.70;99.90
17252;DHT22;8742;51.716;8.790;2024-02-15T03:09:00;11.70;99.90
17252;DHT22;8742;51.716;8.790;2024-02-15T03:11:28;11.70;99.90
17252;DHT22;8742;51.716;8.790;2024-02-15T03:13:55;11.80;99.90
17252;DHT22;8742;51.716;8.790;2024-02-15T03:16:25;11.80;99.90
17252;DHT22;8742;51.716;8.790;2024-02-15T03:18:54;11.90;99.90
17252;DHT22;8742;51.716;8.790;2024-02-15T03:21:21;11.90;99.90
17252;DHT22;8742;51.716;8.790;2024-02-15T03:23:48;11.90;99.90
17252;DHT22;8742;51.716;8.790;2024-02-15T03:26:14;11.90;99.90
17252;DHT22;8742;51.716;8.790;2024-02-15T03:28:41;11.90;99.90
17252;DHT22;8742;51.716;8.790;2024-02-15T03:31:10;11.90;99.90
17252;DHT22;8742;51.716;8.790;2024-02-15T03:33:37;11.90;99.90
17252;DHT22;8742;51.716;8.790;2024-02-15T03:36:06;11.90;99.90
17252;DHT22;8742;51.716;8.790;2024-02-15T03:38:33;11.90;99.90
17252;DHT22;8742;51.716;8.790;2024-02-15T03:41:00;11.90;99.90
17252;DHT22;8742;51.716;8.790;2024-02-15T03:43:27;11.90;99.90
17252;DHT22;8742;51.716;8.790;2024-02-15T03:45:54;11.90;99.90
17252;DHT22;8742;51.716;8.790;2024-02-15T03:48:21;11.90;99.90
17252;DHT22;8742;51.716;8.790;2024-02-15T03:50:48;11.90;99.90
17252;DHT22;8742;51.716;8.790;2024-02-15T03:53:16;11.90;99.90
17252;DHT22;8742;51.716;8.790;2024-02-15T03:55:43;11.90;99.90
17252;DHT22;8742;51.716;8.790;2024-02-15T03:58:10;11.90;99.90
17252;DHT22;8742;51.716;8.790;2024-02-15T04:00:37;11.90;99.90
17252;DHT22;8742;51.716;8.790;2024-02-15T04:03:05;11.90;99.90
17252;DHT22;8742;51.716;8.790;2024-02-15T04:05:32;11.90;99.90
17252;DHT22;8742;51.716;8.790;2024-02-15T04:07:59;11.90;99.90
17252;DHT22;8742;51.716;8.790;2024-02-15T04:10:29;11.90;99.90
17252;DHT22;8742;51.716;8.790;2024-02-15T04:12:56;12.00;99.90
17252;DHT22;8742;51.716;8.790;2024-02-15T04:15:23;11.90;99.90
17252;DHT22;8742;51.716;8.790;2024-02-15T04:17:50;11.90;99.90
17252;DHT22;8742;51.716;8.790;2024-02-15T04:20:21;11.90;99.90
17252;DHT22;8742;51.716;8.790;2024-02-15T04:22:48;12.00;99.90
17252;DHT22;8742;51.716;8.790;2024-02-15T04:25:16;12.00;99.90
17252;DHT22;8742;51.716;8.790;2024-02-15T04:27:46;11.90;99.90
17252;DHT22;8742;51.716;8.790;2024-02-15T04:30:13;11.90;99.90
17252;DHT22;8742;51.716;8.790;2024-02-15T04:32:41;11.90;99.90
17252;DHT22;8742;51.716;8.790;2024-02-15T04:35:08;11.90;99.90
17252;DHT22;8742;51.716;8.790;2024-02-15T04:37:35;11.90;99.90
17252;DHT22;8742;51.716;8.790;2024-02-15T04:40:03;11.90;99.90
17252;DHT22;8742;51.716;8.790;2024-02-15T04:42:33;11.90;99.90
17252;DHT22;8742;51.716;8.790;2024-02-15T04:45:03;11.90;99.90
17252;DHT22;8742;51.716;8.790;2024-02-15T04:47:31;11.90;99.90
17252;DHT22;8742;51.716;8.790;2024-02-15T04:49:57;11.90;99.90
17252;DHT22;8742;51.716;8.790;2024-02-15T04:52:24;11.80;99.90
17252;DHT22;8742;51.716;8.790;2024-02-15T04:54:51;11.90;99.90
17252;DHT22;8742;51.716;8.790;2024-02-15T04:57:20;11.90;99.90
17252;DHT22;8742;51.716;8.790;2024-02-15T04:59:47;11.90;99.90
17252;DHT22;8742;51.716;8.790;2024-02-15T05:02:16;11.90;99.90
17252;DHT22;8742;51.716;8.790;2024-02-15T05:04:45;11.90;99.90
17252;DHT22;8742;51.716;8.790;2024-02-15T05:07:13;11.90;99.90
17252;DHT22;8742;51.716;8.790;2024-02-15T05:09:42;11.90;99.90
17252;DHT22;8742;51.716;8.790;2024-02-15T05:12:09;11.90;99.90
17252;DHT22;8742;51.716;8.790;2024-02-15T05:14:36;11.90;99.90
17252;DHT22;8742;51.716;8.790;2024-02-15T05:17:03;11.90;99.90
17252;DHT22;8742;51.716;8.790;2024-02-15T05:19:33;11.90;99.90
17252;DHT22;8742;51.716;8.790;2024-02-15T05:22:01;11.90;99.90
17252;DHT22;8742;51.716;8.790;2024-02-15T05:24:30;11.90;99.90
17252;DHT22;8742;51.716;8.790;2024-02-15T05:26:57;11.90;99.90
17252;DHT22;8742;51.716;8.790;2024-02-15T05:29:24;11.90;99.90
17252;DHT22;8742;51.716;8.790;2024-02-15T05:31:51;11.90;99.90
17252;DHT22;8742;51.716;8.790;2024-02-15T05:34:20;11.90;99.90
17252;DHT22;8742;51.716;8.790;2024-02-15T05:36:48;11.90;99.90
17252;DHT22;8742;51.716;8.790;2024-02-15T05:39:15;11.90;99.90
17252;DHT22;8742;51.716;8.790;2024-02-15T05:41:44;11.90;99.90
17252;DHT22;8742;51.716;8.790;2024-02-15T05:44:11;11.90;99.90
17252;DHT22;8742;51.716;8.790;2024-02-15T05:46:39;11.90;99.90
17252;DHT22;8742;51.716;8.790;2024-02-15T05:49:06;11.90;99.90
17252;DHT22;8742;51.716;8.790;2024-02-15T05:51:36;11.90;99.90
17252;DHT22;8742;51.716;8.790;2024-02-15T05:54:04;11.90;99.90
17252;DHT22;8742;51.716;8.790;2024-02-15T05:56:31;11.90;99.90
17252;DHT22;8742;51.716;8.790;2024-02-15T05:58:58;11.90;99.90
17252;DHT22;8742;51.716;8.790;2024-02-15T06:01:27;11.90;99.90
17252;DHT22;8742;51.716;8.790;2024-02-15T06:03:55;11.90;99.90
17252;DHT22;8742;51.716;8.790;2024-02-15T06:06:22;11.90;99.90
17252;DHT22;8742;51.716;8.790;2024-02-15T06:08:49;11.90;99.90
17252;DHT22;8742;51.716;8.790;2024-02-15T06:11:20;11.90;99.90
17252;DHT22;8742;51.716;8.790;2024-02-15T06:13:47;11.90;99.90
17252;DHT22;8742;51.716;8.790;2024-02-15T06:16:14;11.90;99.90
17252;DHT22;8742;51.716;8.790;2024-02-15T06:18:40;11.90;99.90
17252;DHT22;8742;51.716;8.790;2024-02-15T06:21:07;11.90;99.90
17252;DHT22;8742;51.716;8.790;2024-02-15T06:23:34;11.90;99.90
17252;DHT22;8742;51.716;8.790;2024-02-15T06:26:03;11.90;99.90
17252;DHT22;8742;51.716;8.790;2024-02-15T06:28:31;11.90;99.90
17252;DHT22;8742;51.716;8.790;2024-02-15T06:31:27;11.90;99.90
17252;DHT22;8742;51.716;8.790;2024-02-15T06:34:10;11.90;99.90
17252;DHT22;8742;51.716;8.790;2024-02-15T06:36:56;11.90;99.90
17252;DHT22;8742;51.716;8.790;2024-02-15T06:39:42;12.00;99.90
17252;DHT22;8742;51.716;8.790;2024-02-15T06:42:21;12.00;99.90
17252;DHT22;8742;51.716;8.790;2024-02-15T06:44:49;12.00;99.90
17252;DHT22;8742;51.716;8.790;2024-02-15T06:47:16;12.00;99.90
17252;DHT22;8742;51.716;8.790;2024-02-15T06:49:45;12.00;99.90
17252;DHT22;8742;51.716;8.790;2024-02-15T06:52:15;12.10;99.90
17252;DHT22;8742;51.716;8.790;2024-02-15T06:54:43;12.10;99.90
17252;DHT22;8742;51.716;8.790;2024-02-15T06:57:14;12.10;99.90
17252;DHT22;8742;51.716;8.790;2024-02-15T06:59:57;12.10;99.90
17252;DHT22;8742;51.716;8.790;2024-02-15T07:02:24;12.10;99.90
17252;DHT22;8742;51.716;8.790;2024-02-15T07:04:51;12.20;99.90
17252;DHT22;8742;51.716;8.790;2024-02-15T07:07:18;12.20;99.90
17252;DHT22;8742;51.716;8.790;2024-02-15T07:09:45;12.30;99.90
17252;DHT22;8742;51.716;8.790;2024-02-15T07:12:12;12.30;99.90
17252;DHT22;8742;51.716;8.790;2024-02-15T07:14:40;12.30;99.90
17252;DHT22;8742;51.716;8.790;2024-02-15T07:17:12;12.30;99.90
17252;DHT22;8742;51.716;8.790;2024-02-15T07:19:43;12.40;99.90
17252;DHT22;8742;51.716;8.790;2024-02-15T07:22:33;12.40;99.90
17252;DHT22;8742;51.716;8.790;2024-02-15T07:25:00;12.40;99.90
17252;DHT22;8742;51.716;8.790;2024-02-15T07:27:28;12.50;99.90
17252;DHT22;8742;51.716;8.790;2024-02-15T07:29:58;12.50;99.90
17252;DHT22;8742;51.716;8.790;2024-02-15T07:32:32;12.50;99.90
17252;DHT22;8742;51.716;8.790;2024-02-15T07:35:02;12.60;99.90
17252;DHT22;8742;51.716;8.790;2024-02-15T07:37:33;12.60;99.90
17252;DHT22;8742;51.716;8.790;2024-02-15T07:40:00;12.60;99.90
17252;DHT22;8742;51.716;8.790;2024-02-15T07:42:30;12.70;99.90
17252;DHT22;8742;51.716;8.790;2024-02-15T07:44:57;12.70;99.90
17252;DHT22;8742;51.716;8.790;2024-02-15T07:47:43;12.70;99.90
17252;DHT22;8742;51.716;8.790;2024-02-15T07:50:10;12.80;99.90
17252;DHT22;8742;51.716;8.790;2024-02-15T07:52:40;12.80;99.90
17252;DHT22;8742;51.716;8.790;2024-02-15T07:55:11;12.80;99.90
17252;DHT22;8742;51.716;8.790;2024-02-15T07:57:50;12.90;99.90
17252;DHT22;8742;51.716;8.790;2024-02-15T08:00:19;12.90;99.90
17252;DHT22;8742;51.716;8.790;2024-02-15T08:02:58;12.90;99.90
17252;DHT22;8742;51.716;8.790;2024-02-15T08:05:44;13.00;99.90
17252;DHT22;8742;51.716;8.790;2024-02-15T08:08:10;13.00;99.90
17252;DHT22;8742;51.716;8.790;2024-02-15T08:10:40;13.00;99.90
17252;DHT22;8742;51.716;8.790;2024-02-15T08:13:12;13.00;99.90
17252;DHT22;8742;51.716;8.790;2024-02-15T08:15:40;12.90;99.90
17252;DHT22;8742;51.716;8.790;2024-02-15T08:18:12;13.00;99.90
17252;DHT22;8742;51.716;8.790;2024-02-15T08:20:45;13.00;99.90
17252;DHT22;8742;51.716;8.790;2024-02-15T08:23:15;13.00;99.90
17252;DHT22;8742;51.716;8.790;2024-02-15T08:25:45;13.10;99.90
17252;DHT22;8742;51.716;8.790;2024-02-15T08:28:12;13.00;99.90
17252;DHT22;8742;51.716;8.790;2024-02-15T08:30:55;13.10;99.90
17252;DHT22;8742;51.716;8.790;2024-02-15T08:33:23;13.10;99.90
17252;DHT22;8742;51.716;8.790;2024-02-15T08:35:53;13.10;99.90
17252;DHT22;8742;51.716;8.790;2024-02-15T08:38:21;13.20;99.90
17252;DHT22;8742;51.716;8.790;2024-02-15T08:40:48;13.20;99.90
17252;DHT22;8742;51.716;8.790;2024-02-15T08:43:17;13.20;99.90
17252;DHT22;8742;51.716;8.790;2024-02-15T08:45:44;13.20;99.90
17252;DHT22;8742;51.716;8.790;2024-02-15T08:48:11;13.20;99.90
17252;DHT22;8742;51.716;8.790;2024-02-15T08:50:40;13.10;99.90
17252;DHT22;8742;51.716;8.790;2024-02-15T08:53:07;13.00;99.90
17252;DHT22;8742;51.716;8.790;2024-02-15T08:55:34;12.90;99.90
17252;DHT22;8742;51.716;8.790;2024-02-15T08:58:01;12.90;99.90
17252;DHT22;8742;51.716;8.790;2024-02-15T09:00:29;12.80;99.90
17252;DHT22;8742;51.716;8.790;2024-02-15T09:02:58;12.80;99.90
17252;DHT22;8742;51.716;8.790;2024-02-15T09:05:27;12.70;99.90
17252;DHT22;8742;51.716;8.790;2024-02-15T09:07:59;12.70;99.90
17252;DHT22;8742;51.716;8.790;2024-02-15T09:10:26;12.70;99.90
17252;DHT22;8742;51.716;8.790;2024-02-15T09:12:53;12.70;99.90
17252;DHT22;8742;51.716;8.790;2024-02-15T09:15:20;12.70;99.90
17252;DHT22;8742;51.716;8.790;2024-02-15T09:17:48;12.70;99.90
17252;DHT22;8742;51.716;8.790;2024-02-15T09:20:20;12.70;99.90
17252;DHT22;8742;51.716;8.790;2024-02-15T09:22:48;12.70;99.90
17252;DHT22;8742;51.716;8.790;2024-02-15T09:25:17;12.70;99.90
17252;DHT22;8742;51.716;8.790;2024-02-15T09:27:44;12.60;99.90
17252;DHT22;8742;51.716;8.790;2024-02-15T09:30:13;12.60;99.90
17252;DHT22;8742;51.716;8.790;2024-02-15T09:32:40;12.60;99.90
17252;DHT22;8742;51.716;8.790;2024-02-15T09:35:08;12.60;99.90
17252;DHT22;8742;51.716;8.790;2024-02-15T09:37:38;12.60;99.90
17252;DHT22;8742;51.716;8.790;2024-02-15T09:40:08;12.60;99.90
17252;DHT22;8742;51.716;8.790;2024-02-15T09:42:52;12.60;99.90
17252;DHT22;8742;51.716;8.790;2024-02-15T09:45:19;12.60;99.90
17252;DHT22;8742;51.716;8.790;2024-02-15T09:47:49;12.60;99.90
17252;DHT22;8742;51.716;8.790;2024-02-15T09:50:18;12.50;99.90
17252;DHT22;8742;51.716;8.790;2024-02-15T09:52:49;12.60;99.90
17252;DHT22;8742;51.716;8.790;2024-02-15T09:55:16;12.60;99.90
17252;DHT22;8742;51.716;8.790;2024-02-15T09:57:44;12.60;99.90
17252;DHT22;8742;51.716;8.790;2024-02-15T10:00:14;12.70;99.90
17252;DHT22;8742;51.716;8.790;2024-02-15T10:03:02;12.70;99.90
17252;DHT22;8742;51.716;8.790;2024-02-15T10:05:32;12.80;99.90
17252;DHT22;8742;51.716;8.790;2024-02-15T10:07:59;12.90;99.90
17252;DHT22;8742;51.716;8.790;2024-02-15T10:10:36;12.90;99.90
17252;DHT22;8742;51.716;8.790;2024-02-15T10:13:13;13.00;99.90
17252;DHT22;8742;51.716;8.790;2024-02-15T10:15:42;12.90;99.90
17252;DHT22;8742;51.716;8.790;2024-02-15T10:18:21;13.00;99.90
17252;DHT22;8742;51.716;8.790;2024-02-15T10:21:03;12.90;99.90
17252;DHT22;8742;51.716;8.790;2024-02-15T10:23:31;12.90;99.90
17252;DHT22;8742;51.716;8.790;2024-02-15T10:26:31;12.90;99.90
17252;DHT22;8742;51.716;8.790;2024-02-15T10:29:07;12.90;99.90
17252;DHT22;8742;51.716;8.790;2024-02-15T10:31:37;12.90;99.90
17252;DHT22;8742;51.716;8.790;2024-02-15T10:34:06;12.90;99.90
17252;DHT22;8742;51.716;8.790;2024-02-15T10:36:34;12.90;99.90
17252;DHT22;8742;51.716;8.790;2024-02-15T10:39:11;12.80;99.90
17252;DHT22;8742;51.716;8.790;2024-02-15T10:42:00;12.80;99.90
17252;DHT22;8742;51.716;8.790;2024-02-15T10:44:27;12.90;99.90
17252;DHT22;8742;51.716;8.790;2024-02-15T10:46:55;12.90;99.90
17252;DHT22;8742;51.716;8.790;2024-02-15T10:49:23;12.90;99.90
17252;DHT22;8742;51.716;8.790;2024-02-15T10:51:52;12.90;99.90
17252;DHT22;8742;51.716;8.790;2024-02-15T10:54:32;12.90;99.90
17252;DHT22;8742;51.716;8.790;2024-02-15T10:57:12;12.90;99.90
17252;DHT22;8742;51.716;8.790;2024-02-15T10:59:48;12.90;99.90
17252;DHT22;8742;51.716;8.790;2024-02-15T11:02:29;12.90;99.90
17252;DHT22;8742;51.716;8.790;2024-02-15T11:05:01;12.80;99.90
17252;DHT22;8742;51.716;8.790;2024-02-15T11:07:31;12.80;99.90
17252;DHT22;8742;51.716;8.790;2024-02-15T11:09:58;12.70;99.90
17252;DHT22;8742;51.716;8.790;2024-02-15T11:12:40;12.70;99.90
17252;DHT22;8742;51.716;8.790;2024-02-15T11:15:09;12.70;99.90
17252;DHT22;8742;51.716;8.790;2024-02-15T11:17:48;12.70;99.90
17252;DHT22;8742;51.716;8.790;2024-02-15T11:20:48;12.70;99.90
17252;DHT22;8742;51.716;8.790;2024-02-15T11:23:27;12.70;99.90
17252;DHT22;8742;51.716;8.790;2024-02-15T11:25:56;12.60;99.90
17252;DHT22;8742;51.716;8.790;2024-02-15T11:28:40;12.70;99.90
17252;DHT22;8742;51.716;8.790;2024-02-15T11:31:53;12.70;99.90
17252;DHT22;8742;51.716;8.790;2024-02-15T11:34:44;12.70;99.90
17252;DHT22;8742;51.716;8.790;2024-02-15T11:37:51;12.70;99.90
17252;DHT22;8742;51.716;8.790;2024-02-15T11:40:20;12.70;99.90
17252;DHT22;8742;51.716;8.790;2024-02-15T11:42:55;12.70;99.90
17252;DHT22;8742;51.716;8.790;2024-02-15T11:45:31;12.70;99.90
17252;DHT22;8742;51.716;8.790;2024-02-15T11:48:03;12.70;99.90
17252;DHT22;8742;51.716;8.790;2024-02-15T11:50:38;12.80;99.90
17252;DHT22;8742;51.716;8.790;2024-02-15T11:53:15;12.90;99.90
17252;DHT22;8742;51.716;8.790;2024-02-15T11:55:43;13.00;99.90
17252;DHT22;8742;51.716;8.790;2024-02-15T11:58:13;13.00;99.90
17252;DHT22;8742;51.716;8.790;2024-02-15T12:01:01;13.10;99.90
17252;DHT22;8742;51.716;8.790;2024-02-15T12:03:45;13.10;99.90
17252;DHT22;8742;51.716;8.790;2024-02-15T12:06:31;13.20;99.90
17252;DHT22;8742;51.716;8.790;2024-02-15T12:09:24;13.20;99.90
17252;DHT22;8742;51.716;8.790;2024-02-15T12:12:09;13.20;99.90
17252;DHT22;8742;51.716;8.790;2024-02-15T12:14:58;13.20;99.90
17252;DHT22;8742;51.716;8.790;2024-02-15T12:17:42;13.20;99.90
17252;DHT22;8742;51.716;8.790;2024-02-15T12:20:27;13.10;99.90
17252;DHT22;8742;51.716;8.790;2024-02-15T12:22:55;13.10;99.90
17252;DHT22;8742;51.716;8.790;2024-02-15T12:25:23;13.10;99.90
17252;DHT22;8742;51.716;8.790;2024-02-15T12:27:53;13.10;99.90
17252;DHT22;8742;51.716;8.790;2024-02-15T12:30:21;13.10;99.90
17252;DHT22;8742;51.716;8.790;2024-02-15T12:32:48;13.10;99.90
17252;DHT22;8742;51.716;8.790;2024-02-15T12:35:16;13.10;99.90
17252;DHT22;8742;51.716;8.790;2024-02-15T12:37:45;13.00;99.90
17252;DHT22;8742;51.716;8.790;2024-02-15T12:40:15;13.10;99.90
17252;DHT22;8742;51.716;8.790;2024-02-15T12:42:43;13.20;99.90
17252;DHT22;8742;51.716;8.790;2024-02-15T12:45:16;13.20;99.90
17252;DHT22;8742;51.716;8.790;2024-02-15T12:47:47;13.20;99.90
17252;DHT22;8742;51.716;8.790;2024-02-15T12:50:17;13.10;99.90
17252;DHT22;8742;51.716;8.790;2024-02-15T12:52:45;13.20;99.90
17252;DHT22;8742;51.716;8.790;2024-02-15T12:55:16;13.20;99.90
17252;DHT22;8742;51.716;8.790;2024-02-15T12:57:47;13.20;99.90
17252;DHT22;8742;51.716;8.790;2024-02-15T13:00:17;13.30;99.90
17252;DHT22;8742;51.716;8.790;2024-02-15T13:02:54;13.30;99.90
17252;DHT22;8742;51.716;8.790;2024-02-15T13:05:22;13.30;99.90
17252;DHT22;8742;51.716;8.790;2024-02-15T13:07:49;13.30;99.90
17252;DHT22;8742;51.716;8.790;2024-02-15T13:10:20;13.40;99.90
17252;DHT22;8742;51.716;8.790;2024-02-15T13:12:51;13.40;99.90
17252;DHT22;8742;51.716;8.790;2024-02-15T13:15:19;13.40;99.90
17252;DHT22;8742;51.716;8.790;2024-02-15T13:17:47;13.40;99.90
17252;DHT22;8742;51.716;8.790;2024-02-15T13:20:16;13.50;99.90
17252;DHT22;8742;51.716;8.790;2024-02-15T13:22:46;13.50;99.90
17252;DHT22;8742;51.716;8.790;2024-02-15T13:25:14;13.50;99.90
17252;DHT22;8742;51.716;8.790;2024-02-15T13:27:43;13.50;99.90
17252;DHT22;8742;51.716;8.790;2024-02-15T13:30:12;13.50;99.90
17252;DHT22;8742;51.716;8.790;2024-02-15T13:32:52;13.60;99.90
17252;DHT22;8742;51.716;8.790;2024-02-15T13:35:19;13.70;99.90
17252;DHT22;8742;51.716;8.790;2024-02-15T13:37:49;13.70;99.90
17252;DHT22;8742;51.716;8.790;2024-02-15T13:40:19;13.70;99.90
17252;DHT22;8742;51.716;8.790;2024-02-15T13:42:51;13.80;99.90
17252;DHT22;8742;51.716;8.790;2024-02-15T13:45:20;13.80;99.90
17252;DHT22;8742;51.716;8.790;2024-02-15T13:47:48;13.90;99.90
17252;DHT22;8742;51.716;8.790;2024-02-15T13:50:16;13.90;99.90
17252;DHT22;8742;51.716;8.790;2024-02-15T13:52:44;13.90;99.90
17252;DHT22;8742;51.716;8.790;2024-02-15T13:55:12;13.90;99.90
17252;DHT22;8742;51.716;8.790;2024-02-15T13:57:41;13.90;99.90
17252;DHT22;8742;51.716;8.790;2024-02-15T14:00:12;14.00;99.90
17252;DHT22;8742;51.716;8.790;2024-02-15T14:02:47;14.00;99.90
17252;DHT22;8742;51.716;8.790;2024-02-15T14:05:14;14.00;99.90
17252;DHT22;8742;51.716;8.790;2024-02-15T14:07:46;14.00;99.90
17252;DHT22;8742;51.716;8.790;2024-02-15T14:10:13;14.00;99.90
17252;DHT22;8742;51.716;8.790;2024-02-15T14:12:44;14.00;99.90
17252;DHT22;8742;51.716;8.790;2024-02-15T14:15:19;14.10;99.90
17252;DHT22;8742;51.716;8.790;2024-02-15T14:17:46;14.20;99.90
17252;DHT22;8742;51.716;8.790;2024-02-15T14:20:14;14.30;99.90
17252;DHT22;8742;51.716;8.790;2024-02-15T14:22:44;14.30;99.90
17252;DHT22;8742;51.716;8.790;2024-02-15T14:25:16;14.40;99.90
17252;DHT22;8742;51.716;8.790;2024-02-15T14:27:53;14.40;99.90
17252;DHT22;8742;51.716;8.790;2024-02-15T14:30:25;14.50;99.90
17252;DHT22;8742;51.716;8.790;2024-02-15T14:33:10;14.50;99.90
17252;DHT22;8742;51.716;8.790;2024-02-15T14:35:41;14.60;99.90
17252;DHT22;8742;51.716;8.790;2024-02-15T14:38:09;14.70;99.90
17252;DHT22;8742;51.716;8.790;2024-02-15T14:40:39;14.80;99.90
17252;DHT22;8742;51.716;8.790;2024-02-15T14:43:07;14.80;99.90
17252;DHT22;8742;51.716;8.790;2024-02-15T14:45:38;14.90;99.90
17252;DHT22;8742;51.716;8.790;2024-02-15T14:48:16;14.90;99.90
17252;DHT22;8742;51.716;8.790;2024-02-15T14:50:46;14.90;99.90
17252;DHT22;8742;51.716;8.790;2024-02-15T14:53:15;14.90;99.90
17252;DHT22;8742;51.716;8.790;2024-02-15T14:55:44;14.90;99.90
17252;DHT22;8742;51.716;8.790;2024-02-15T14:58:15;14.90;99.90
17252;DHT22;8742;51.716;8.790;2024-02-15T15:00:43;14.90;99.90
17252;DHT22;8742;51.716;8.790;2024-02-15T15:03:11;14.90;99.90
17252;DHT22;8742;51.716;8.790;2024-02-15T15:05:40;14.80;99.90
17252;DHT22;8742;51.716;8.790;2024-02-15T15:08:25;14.80;99.90
17252;DHT22;8742;51.716;8.790;2024-02-15T15:11:09;14.70;99.90
17252;DHT22;8742;51.716;8.790;2024-02-15T15:13:53;14.70;99.90
17252;DHT22;8742;51.716;8.790;2024-02-15T15:16:23;14.60;99.90
17252;DHT22;8742;51.716;8.790;2024-02-15T15:18:51;14.60;99.90
17252;DHT22;8742;51.716;8.790;2024-02-15T15:21:24;14.50;99.90
17252;DHT22;8742;51.716;8.790;2024-02-15T15:23:53;14.50;99.90
17252;DHT22;8742;51.716;8.790;2024-02-15T15:26:20;14.40;99.90
17252;DHT22;8742;51.716;8.790;2024-02-15T15:28:48;14.40;99.90
17252;DHT22;8742;51.716;8.790;2024-02-15T15:31:15;14.30;99.90
17252;DHT22;8742;51.716;8.790;2024-02-15T15:33:43;14.30;99.90
17252;DHT22;8742;51.716;8.790;2024-02-15T15:36:10;14.20;99.90
17252;DHT22;8742;51.716;8.790;2024-02-15T15:38:37;14.20;99.90
17252;DHT22;8742;51.716;8.790;2024-02-15T15:41:07;14.20;99.90
17252;DHT22;8742;51.716;8.790;2024-02-15T15:43:34;14.10;99.90
17252;DHT22;8742;51.716;8.790;2024-02-15T15:46:13;14.10;99.90
17252;DHT22;8742;51.716;8.790;2024-02-15T15:48:40;14.00;99.90
17252;DHT22;8742;51.716;8.790;2024-02-15T15:51:08;13.90;99.90
17252;DHT22;8742;51.716;8.790;2024-02-15T15:53:36;13.80;99.90
17252;DHT22;8742;51.716;8.790;2024-02-15T15:56:05;13.80;99.90
17252;DHT22;8742;51.716;8.790;2024-02-15T15:58:32;13.80;99.90
17252;DHT22;8742;51.716;8.790;2024-02-15T16:01:01;13.70;99.90
17252;DHT22;8742;51.716;8.790;2024-02-15T16:03:29;13.70;99.90
17252;DHT22;8742;51.716;8.790;2024-02-15T16:05:57;13.70;99.90